sensor_id;sensor_type;location;lat;lon;timestamp;pressure;altitude;pressure_sealevel;temperature
13219;BMP180;6674;49.152;11.918;2023-07-13T00:01:16;95871.88;;;19.77
13219;BMP180;6674;49.152;11.918;2023-07-13T00:03:43;95857.97;;;19.82
13219;BMP180;6674;49.152;11.918;2023-07-13T00:06:10;95864.78;;;19.88
13219;BMP180;6674;49.152;11.918;2023-07-13T00:08:36;95858.75;;;19.82
13219;BMP180;6674;49.152;11.918;2023-07-13T00:11:04;95869.47;;;19.86
13219;BMP180;6674;49.152;11.918;2023-07-13T00:13:32;95872.63;;;19.88
13219;BMP180;6674;49.152;11.918;2023-07-13T00:15:59;95868.44;;;19.87
13219;BMP180;6674;49.152;11.918;2023-07-13T00:18:26;95874.78;;;19.76
13219;BMP180;6674;49.152;11.918;2023-07-13T00:20:55;95885.81;;;19.73
13219;BMP180;6674;49.152;11.918;2023-07-13T00:23:30;95887.41;;;19.69
13219;BMP180;6674;49.152;11.918;2023-07-13T00:25:59;95880.91;;;19.61
13219;BMP180;6674;49.152;11.918;2023-07-13T00:28:27;95865.75;;;19.58
13219;BMP180;6674;49.152;11.918;2023-07-13T00:30:54;95872.03;;;19.57
13219;BMP180;6674;49.152;11.918;2023-07-13T00:33:20;95866.84;;;19.52
13219;BMP180;6674;49.152;11.918;2023-07-13T00:35:48;95868.44;;;19.48
13219;BMP180;6674;49.152;11.918;2023-07-13T00:38:15;95866.09;;;19.47
13219;BMP180;6674;49.152;11.918;2023-07-13T00:40:41;95863.69;;;19.55
13219;BMP180;6674;49.152;11.918;2023-07-13T00:43:12;95860.81;;;19.57
13219;BMP180;6674;49.152;11.918;2023-07-13T00:48:54;95859.53;;;19.49
13219;BMP180;6674;49.152;11.918;2023-07-13T00:51:28;95853.84;;;19.43
13219;BMP180;6674;49.152;11.918;2023-07-13T00:53:59;95857.25;;;19.38
13219;BMP180;6674;49.152;11.918;2023-07-13T00:56:26;95856.97;;;19.45
13219;BMP180;6674;49.152;11.918;2023-07-13T00:58:54;95851.97;;;19.48
13219;BMP180;6674;49.152;11.918;2023-07-13T01:01:21;95845.47;;;19.41
13219;BMP180;6674;49.152;11.918;2023-07-13T01:03:47;95845.47;;;19.41
13219;BMP180;6674;49.152;11.918;2023-07-13T01:06:15;95850.94;;;19.44
13219;BMP180;6674;49.152;11.918;2023-07-13T01:08:42;95849.13;;;19.40
13219;BMP180;6674;49.152;11.918;2023-07-13T01:11:09;95856.00;;;19.31
13219;BMP180;6674;49.152;11.918;2023-07-13T01:13:35;95860.69;;;19.34
13219;BMP180;6674;49.152;11.918;2023-07-13T01:16:05;95861.75;;;19.33
13219;BMP180;6674;49.152;11.918;2023-07-13T01:18:37;95849.97;;;19.30
13219;BMP180;6674;49.152;11.918;2023-07-13T01:21:05;95861.00;;;19.22
13219;BMP180;6674;49.152;11.918;2023-07-13T01:26:54;95865.47;;;19.22
13219;BMP180;6674;49.152;11.918;2023-07-13T01:29:20;95868.09;;;19.22
13219;BMP180;6674;49.152;11.918;2023-07-13T01:31:47;95863.31;;;19.29
13219;BMP180;6674;49.152;11.918;2023-07-13T01:34:13;95864.41;;;19.28
13219;BMP180;6674;49.152;11.918;2023-07-13T01:36:41;95853.13;;;19.27
13219;BMP180;6674;49.152;11.918;2023-07-13T01:39:08;95856.78;;;19.31
13219;BMP180;6674;49.152;11.918;2023-07-13T01:41:35;95848.94;;;19.31
13219;BMP180;6674;49.152;11.918;2023-07-13T01:44:01;95840.03;;;19.37
13219;BMP180;6674;49.152;11.918;2023-07-13T01:46:28;95845.53;;;19.36
13219;BMP180;6674;49.152;11.918;2023-07-13T01:48:54;95843.66;;;19.41
13219;BMP180;6674;49.152;11.918;2023-07-13T01:51:21;95850.47;;;19.37
13219;BMP180;6674;49.152;11.918;2023-07-13T01:53:49;95840.75;;;19.43
13219;BMP180;6674;49.152;11.918;2023-07-13T01:56:16;95837.09;;;19.44
13219;BMP180;6674;49.152;11.918;2023-07-13T01:58:42;95835.50;;;19.47
13219;BMP180;6674;49.152;11.918;2023-07-13T02:01:10;95829.75;;;19.46
13219;BMP180;6674;49.152;11.918;2023-07-13T02:03:37;95836.78;;;19.45
13219;BMP180;6674;49.152;11.918;2023-07-13T02:06:04;95847.25;;;19.45
13219;BMP180;6674;49.152;11.918;2023-07-13T02:08:31;95842.84;;;19.46
13219;BMP180;6674;49.152;11.918;2023-07-13T02:10:59;95845.94;;;19.47
13219;BMP180;6674;49.152;11.918;2023-07-13T02:13:27;95838.59;;;19.49
13219;BMP180;6674;49.152;11.918;2023-07-13T02:15:53;95839.91;;;19.52
13219;BMP180;6674;49.152;11.918;2023-07-13T02:18:20;95838.06;;;19.52
13219;BMP180;6674;49.152;11.918;2023-07-13T02:20:46;95838.28;;;19.56
13219;BMP180;6674;49.152;11.918;2023-07-13T02:23:13;95843.75;;;19.59
13219;BMP180;6674;49.152;11.918;2023-07-13T02:25:40;95842.97;;;19.59
13219;BMP180;6674;49.152;11.918;2023-07-13T02:28:08;95846.09;;;19.61
13219;BMP180;6674;49.152;11.918;2023-07-13T02:30:35;95847.44;;;19.58
13219;BMP180;6674;49.152;11.918;2023-07-13T02:33:01;95844.31;;;19.56
13219;BMP180;6674;49.152;11.918;2023-07-13T02:35:28;95848.75;;;19.56
13219;BMP180;6674;49.152;11.918;2023-07-13T02:37:55;95850.09;;;19.53
13219;BMP180;6674;49.152;11.918;2023-07-13T02:40:22;95858.75;;;19.49
13219;BMP180;6674;49.152;11.918;2023-07-13T02:42:48;95862.72;;;19.42
13219;BMP180;6674;49.152;11.918;2023-07-13T02:45:17;95856.44;;;19.43
13219;BMP180;6674;49.152;11.918;2023-07-13T02:47:43;95851.25;;;19.38
13219;BMP180;6674;49.152;11.918;2023-07-13T02:50:10;95864.38;;;19.33
13219;BMP180;6674;49.152;11.918;2023-07-13T02:52:36;95855.50;;;19.24
13219;BMP180;6674;49.152;11.918;2023-07-13T02:55:03;95863.94;;;19.16
13219;BMP180;6674;49.152;11.918;2023-07-13T02:57:30;95861.88;;;19.13
13219;BMP180;6674;49.152;11.918;2023-07-13T02:59:58;95866.03;;;19.14
13219;BMP180;6674;49.152;11.918;2023-07-13T03:02:26;95869.19;;;19.11
13219;BMP180;6674;49.152;11.918;2023-07-13T03:04:54;95872.63;;;19.06
13219;BMP180;6674;49.152;11.918;2023-07-13T03:07:20;95870.28;;;19.05
13219;BMP180;6674;49.152;11.918;2023-07-13T03:09:47;95865.09;;;19.00
13219;BMP180;6674;49.152;11.918;2023-07-13T03:12:13;95875.00;;;18.98
13219;BMP180;6674;49.152;11.918;2023-07-13T03:14:40;95878.69;;;18.92
13219;BMP180;6674;49.152;11.918;2023-07-13T03:17:06;95872.97;;;18.85
13219;BMP180;6674;49.152;11.918;2023-07-13T03:19:34;95875.59;;;18.80
13219;BMP180;6674;49.152;11.918;2023-07-13T03:22:01;95880.81;;;18.80
13219;BMP180;6674;49.152;11.918;2023-07-13T03:24:28;95889.72;;;18.79
13219;BMP180;6674;49.152;11.918;2023-07-13T03:26:54;95887.13;;;18.74
13219;BMP180;6674;49.152;11.918;2023-07-13T03:29:21;95890.25;;;18.71
13219;BMP180;6674;49.152;11.918;2023-07-13T03:31:47;95888.16;;;18.68
13219;BMP180;6674;49.152;11.918;2023-07-13T03:34:14;95885.56;;;18.68
13219;BMP180;6674;49.152;11.918;2023-07-13T03:36:42;95892.63;;;18.68
13219;BMP180;6674;49.152;11.918;2023-07-13T03:39:09;95897.59;;;18.64
13219;BMP180;6674;49.152;11.918;2023-07-13T03:41:36;95912.22;;;18.60
13219;BMP180;6674;49.152;11.918;2023-07-13T03:44:03;95918.78;;;18.58
13219;BMP180;6674;49.152;11.918;2023-07-13T03:46:30;95924.78;;;18.58
13219;BMP180;6674;49.152;11.918;2023-07-13T03:48:56;95914.34;;;18.49
13219;BMP180;6674;49.152;11.918;2023-07-13T03:51:23;95921.44;;;18.43
13219;BMP180;6674;49.152;11.918;2023-07-13T03:53:51;95916.97;;;18.44
13219;BMP180;6674;49.152;11.918;2023-07-13T03:56:18;95916.72;;;18.40
13219;BMP180;6674;49.152;11.918;2023-07-13T03:58:47;95924.56;;;18.40
13219;BMP180;6674;49.152;11.918;2023-07-13T04:01:15;95927.69;;;18.37
13219;BMP180;6674;49.152;11.918;2023-07-13T04:03:42;95939.47;;;18.35
13219;BMP180;6674;49.152;11.918;2023-07-13T04:06:15;95933.19;;;18.31
13219;BMP180;6674;49.152;11.918;2023-07-13T04:08:47;95934.25;;;18.35
13219;BMP180;6674;49.152;11.918;2023-07-13T04:11:17;95936.31;;;18.38
13219;BMP180;6674;49.152;11.918;2023-07-13T04:13:43;95936.84;;;18.35
13219;BMP180;6674;49.152;11.918;2023-07-13T04:16:10;95938.94;;;18.33
13219;BMP180;6674;49.152;11.918;2023-07-13T04:18:37;95942.59;;;18.37
13219;BMP180;6674;49.152;11.918;2023-07-13T04:21:03;95924.06;;;18.38
13219;BMP180;6674;49.152;11.918;2023-07-13T04:23:30;95926.94;;;18.37
13219;BMP180;6674;49.152;11.918;2023-07-13T04:25:56;95930.06;;;18.39
13219;BMP180;6674;49.152;11.918;2023-07-13T04:28:25;95921.44;;;18.43
13219;BMP180;6674;49.152;11.918;2023-07-13T04:30:52;95923.78;;;18.50
13219;BMP180;6674;49.152;11.918;2023-07-13T04:33:19;95934.22;;;18.45
13219;BMP180;6674;49.152;11.918;2023-07-13T04:35:48;95926.91;;;18.42
13219;BMP180;6674;49.152;11.918;2023-07-13T04:38:15;95930.56;;;18.46
13219;BMP180;6674;49.152;11.918;2023-07-13T04:40:42;95937.34;;;18.47
13219;BMP180;6674;49.152;11.918;2023-07-13T04:43:09;95936.84;;;18.45
13219;BMP180;6674;49.152;11.918;2023-07-13T04:45:38;95937.38;;;18.37
13219;BMP180;6674;49.152;11.918;2023-07-13T04:48:05;95931.34;;;18.46
13219;BMP180;6674;49.152;11.918;2023-07-13T04:50:32;95932.63;;;18.49
13219;BMP180;6674;49.152;11.918;2023-07-13T04:52:59;95932.13;;;18.52
13219;BMP180;6674;49.152;11.918;2023-07-13T04:55:25;95941.22;;;18.59
13219;BMP180;6674;49.152;11.918;2023-07-13T04:57:56;95934.72;;;18.52
13219;BMP180;6674;49.152;11.918;2023-07-13T05:00:25;95932.88;;;18.52
13219;BMP180;6674;49.152;11.918;2023-07-13T05:02:54;95937.88;;;18.49
13219;BMP180;6674;49.152;11.918;2023-07-13T05:05:21;95940.19;;;18.55
13219;BMP180;6674;49.152;11.918;2023-07-13T05:07:47;95960.84;;;18.52
13219;BMP180;6674;49.152;11.918;2023-07-13T05:10:14;95952.25;;;18.46
13219;BMP180;6674;49.152;11.918;2023-07-13T05:12:41;95955.13;;;18.45
13219;BMP180;6674;49.152;11.918;2023-07-13T05:15:08;95964.00;;;18.44
13219;BMP180;6674;49.152;11.918;2023-07-13T05:17:35;95959.28;;;18.46
13219;BMP180;6674;49.152;11.918;2023-07-13T05:20:06;95971.31;;;18.47
13219;BMP180;6674;49.152;11.918;2023-07-13T05:22:33;95975.75;;;18.46
13219;BMP180;6674;49.152;11.918;2023-07-13T05:25:00;95972.84;;;18.48
13219;BMP180;6674;49.152;11.918;2023-07-13T05:27:27;95975.47;;;18.48
13219;BMP180;6674;49.152;11.918;2023-07-13T05:29:53;95976.50;;;18.61
13219;BMP180;6674;49.152;11.918;2023-07-13T05:32:20;95982.75;;;18.65
13219;BMP180;6674;49.152;11.918;2023-07-13T05:34:46;95981.19;;;18.74
13219;BMP180;6674;49.152;11.918;2023-07-13T05:37:14;95978.81;;;18.78
13219;BMP180;6674;49.152;11.918;2023-07-13T05:39:41;95993.72;;;18.82
13219;BMP180;6674;49.152;11.918;2023-07-13T05:42:08;95994.25;;;18.79
13219;BMP180;6674;49.152;11.918;2023-07-13T05:44:34;95995.53;;;18.92
13219;BMP180;6674;49.152;11.918;2023-07-13T05:47:01;95989.47;;;18.96
13219;BMP180;6674;49.152;11.918;2023-07-13T05:49:28;95983.47;;;18.96
13219;BMP180;6674;49.152;11.918;2023-07-13T05:51:55;95982.44;;;19.02
13219;BMP180;6674;49.152;11.918;2023-07-13T05:54:23;95985.56;;;19.08
13219;BMP180;6674;49.152;11.918;2023-07-13T05:56:50;95984.75;;;19.13
13219;BMP180;6674;49.152;11.918;2023-07-13T05:59:17;95986.28;;;19.19
13219;BMP180;6674;49.152;11.918;2023-07-13T06:01:44;95981.59;;;19.16
13219;BMP180;6674;49.152;11.918;2023-07-13T06:04:10;95983.69;;;19.14
13219;BMP180;6674;49.152;11.918;2023-07-13T06:06:37;95984.44;;;19.29
13219;BMP180;6674;49.152;11.918;2023-07-13T06:09:04;95990.97;;;19.27
13219;BMP180;6674;49.152;11.918;2023-07-13T06:11:32;95992.50;;;19.38
13219;BMP180;6674;49.152;11.918;2023-07-13T06:14:01;95989.13;;;19.37
13219;BMP180;6674;49.152;11.918;2023-07-13T06:16:29;95992.78;;;19.31
13219;BMP180;6674;49.152;11.918;2023-07-13T06:18:56;95985.13;;;19.45
13219;BMP180;6674;49.152;11.918;2023-07-13T06:21:23;95984.84;;;19.51
13219;BMP180;6674;49.152;11.918;2023-07-13T06:23:50;95990.06;;;19.51
13219;BMP180;6674;49.152;11.918;2023-07-13T06:26:18;95987.16;;;19.57
13219;BMP180;6674;49.152;11.918;2023-07-13T06:28:47;95987.34;;;19.71
13219;BMP180;6674;49.152;11.918;2023-07-13T06:31:14;95991.84;;;19.65
13219;BMP180;6674;49.152;11.918;2023-07-13T06:33:41;95989.94;;;19.76
13219;BMP180;6674;49.152;11.918;2023-07-13T06:36:08;96002.72;;;19.87
13219;BMP180;6674;49.152;11.918;2023-07-13T06:38:35;96003.22;;;19.94
13219;BMP180;6674;49.152;11.918;2023-07-13T06:41:02;96003.69;;;20.01
13219;BMP180;6674;49.152;11.918;2023-07-13T06:43:29;96000.00;;;20.02
13219;BMP180;6674;49.152;11.918;2023-07-13T06:45:58;96006.81;;;20.03
13219;BMP180;6674;49.152;11.918;2023-07-13T06:48:25;96003.09;;;20.09
13219;BMP180;6674;49.152;11.918;2023-07-13T06:50:52;96006.47;;;20.14
13219;BMP180;6674;49.152;11.918;2023-07-13T06:53:19;96005.13;;;20.22
13219;BMP180;6674;49.152;11.918;2023-07-13T06:55:47;96009.97;;;20.38
13219;BMP180;6674;49.152;11.918;2023-07-13T06:58:15;96016.97;;;20.42
13219;BMP180;6674;49.152;11.918;2023-07-13T07:00:41;96020.03;;;20.54
13219;BMP180;6674;49.152;11.918;2023-07-13T07:03:10;96017.84;;;20.66
13219;BMP180;6674;49.152;11.918;2023-07-13T07:05:36;96009.34;;;20.79
13219;BMP180;6674;49.152;11.918;2023-07-13T07:08:03;96018.72;;;20.85
13219;BMP180;6674;49.152;11.918;2023-07-13T07:10:30;96020.38;;;20.76
13219;BMP180;6674;49.152;11.918;2023-07-13T07:12:57;96022.00;;;20.72
13219;BMP180;6674;49.152;11.918;2023-07-13T07:15:25;96020.69;;;20.70
13219;BMP180;6674;49.152;11.918;2023-07-13T07:17:51;96029.06;;;20.72
13219;BMP180;6674;49.152;11.918;2023-07-13T07:20:20;96030.38;;;20.74
13219;BMP180;6674;49.152;11.918;2023-07-13T07:22:46;96025.94;;;20.70
13219;BMP180;6674;49.152;11.918;2023-07-13T07:25:13;96026.22;;;20.63
13219;BMP180;6674;49.152;11.918;2023-07-13T07:27:40;96031.56;;;20.53
13219;BMP180;6674;49.152;11.918;2023-07-13T07:30:07;96040.50;;;20.52
13219;BMP180;6674;49.152;11.918;2023-07-13T07:32:34;96040.69;;;20.61
13219;BMP180;6674;49.152;11.918;2023-07-13T07:35:01;96051.75;;;20.53
13219;BMP180;6674;49.152;11.918;2023-07-13T07:37:29;96054.69;;;20.46
13219;BMP180;6674;49.152;11.918;2023-07-13T07:39:56;96053.59;;;20.52
13219;BMP180;6674;49.152;11.918;2023-07-13T07:42:22;96051.94;;;20.66
13219;BMP180;6674;49.152;11.918;2023-07-13T07:44:49;96051.88;;;20.71
13219;BMP180;6674;49.152;11.918;2023-07-13T07:47:16;96053.81;;;20.89
13219;BMP180;6674;49.152;11.918;2023-07-13T07:49:42;96054.31;;;20.91
13219;BMP180;6674;49.152;11.918;2023-07-13T07:52:09;96058.38;;;20.78
13219;BMP180;6674;49.152;11.918;2023-07-13T07:54:37;96058.16;;;20.75
13219;BMP180;6674;49.152;11.918;2023-07-13T07:57:04;96058.94;;;20.76
13219;BMP180;6674;49.152;11.918;2023-07-13T07:59:31;96070.16;;;20.81
13219;BMP180;6674;49.152;11.918;2023-07-13T08:01:58;96069.06;;;20.87
13219;BMP180;6674;49.152;11.918;2023-07-13T08:04:24;96075.50;;;20.99
13219;BMP180;6674;49.152;11.918;2023-07-13T08:06:52;96071.16;;;21.13
13219;BMP180;6674;49.152;11.918;2023-07-13T08:09:21;96067.94;;;21.21
13219;BMP180;6674;49.152;11.918;2023-07-13T08:11:49;96070.81;;;21.20
13219;BMP180;6674;49.152;11.918;2023-07-13T08:14:17;96065.34;;;21.39
13219;BMP180;6674;49.152;11.918;2023-07-13T08:16:44;96072.44;;;21.44
13219;BMP180;6674;49.152;11.918;2023-07-13T08:19:11;96078.44;;;21.44
13219;BMP180;6674;49.152;11.918;2023-07-13T08:21:37;96085.84;;;21.37
13219;BMP180;6674;49.152;11.918;2023-07-13T08:24:04;96064.56;;;21.44
13219;BMP180;6674;49.152;11.918;2023-07-13T08:26:31;96076.03;;;21.48
13219;BMP180;6674;49.152;11.918;2023-07-13T08:28:59;96078.78;;;21.61
13219;BMP180;6674;49.152;11.918;2023-07-13T08:31:26;96093.53;;;21.57
13219;BMP180;6674;49.152;11.918;2023-07-13T08:33:52;96092.16;;;21.36
13219;BMP180;6674;49.152;11.918;2023-07-13T08:36:19;96085.81;;;21.65
13219;BMP180;6674;49.152;11.918;2023-07-13T08:38:46;96083.09;;;21.94
13219;BMP180;6674;49.152;11.918;2023-07-13T08:41:15;96091.28;;;22.10
13219;BMP180;6674;49.152;11.918;2023-07-13T08:43:47;96086.03;;;21.69
13219;BMP180;6674;49.152;11.918;2023-07-13T08:46:19;96088.78;;;22.01
13219;BMP180;6674;49.152;11.918;2023-07-13T08:48:50;96092.69;;;22.03
13219;BMP180;6674;49.152;11.918;2023-07-13T08:51:40;96102.28;;;22.12
13219;BMP180;6674;49.152;11.918;2023-07-13T08:54:17;96103.28;;;22.16
13219;BMP180;6674;49.152;11.918;2023-07-13T08:56:45;96099.53;;;22.22
13219;BMP180;6674;49.152;11.918;2023-07-13T08:59:14;96098.03;;;22.16
13219;BMP180;6674;49.152;11.918;2023-07-13T09:01:58;96103.75;;;22.23
13219;BMP180;6674;49.152;11.918;2023-07-13T09:04:28;96106.28;;;22.28
13219;BMP180;6674;49.152;11.918;2023-07-13T09:07:01;96099.91;;;22.34
13219;BMP180;6674;49.152;11.918;2023-07-13T09:09:40;96113.13;;;22.48
13219;BMP180;6674;49.152;11.918;2023-07-13T09:12:15;96110.28;;;22.26
13219;BMP180;6674;49.152;11.918;2023-07-13T09:14:47;96099.28;;;22.01
13219;BMP180;6674;49.152;11.918;2023-07-13T09:17:19;96110.69;;;22.14
13219;BMP180;6674;49.152;11.918;2023-07-13T09:19:53;96109.28;;;22.40
13219;BMP180;6674;49.152;11.918;2023-07-13T09:22:22;96112.44;;;22.74
13219;BMP180;6674;49.152;11.918;2023-07-13T09:24:55;96110.06;;;22.91
13219;BMP180;6674;49.152;11.918;2023-07-13T09:27:29;96109.94;;;22.82
13219;BMP180;6674;49.152;11.918;2023-07-13T09:30:02;96111.78;;;22.82
13219;BMP180;6674;49.152;11.918;2023-07-13T09:32:32;96118.34;;;22.66
13219;BMP180;6674;49.152;11.918;2023-07-13T09:34:59;96117.16;;;22.40
13219;BMP180;6674;49.152;11.918;2023-07-13T09:37:31;96105.59;;;22.23
13219;BMP180;6674;49.152;11.918;2023-07-13T09:40:01;96110.06;;;22.59
13219;BMP180;6674;49.152;11.918;2023-07-13T09:42:31;96107.66;;;22.76
13219;BMP180;6674;49.152;11.918;2023-07-13T09:45:00;96109.66;;;22.84
13219;BMP180;6674;49.152;11.918;2023-07-13T09:47:32;96103.66;;;23.41
13219;BMP180;6674;49.152;11.918;2023-07-13T09:50:00;96102.91;;;23.41
13219;BMP180;6674;49.152;11.918;2023-07-13T09:52:38;96094.59;;;23.47
13219;BMP180;6674;49.152;11.918;2023-07-13T09:55:23;96105.25;;;22.98
13219;BMP180;6674;49.152;11.918;2023-07-13T09:57:50;96116.44;;;23.35
13219;BMP180;6674;49.152;11.918;2023-07-13T10:00:23;96100.84;;;23.51
13219;BMP180;6674;49.152;11.918;2023-07-13T10:03:01;96104.34;;;23.60
13219;BMP180;6674;49.152;11.918;2023-07-13T10:05:37;96109.16;;;23.98
13219;BMP180;6674;49.152;11.918;2023-07-13T10:08:04;96111.59;;;23.82
13219;BMP180;6674;49.152;11.918;2023-07-13T10:10:33;96114.88;;;23.47
13219;BMP180;6674;49.152;11.918;2023-07-13T10:13:01;96117.91;;;23.40
13219;BMP180;6674;49.152;11.918;2023-07-13T10:15:30;96127.28;;;23.46
13219;BMP180;6674;49.152;11.918;2023-07-13T10:17:56;96125.28;;;23.25
13219;BMP180;6674;49.152;11.918;2023-07-13T10:20:26;96109.41;;;23.30
13219;BMP180;6674;49.152;11.918;2023-07-13T10:22:57;96107.84;;;23.29
13219;BMP180;6674;49.152;11.918;2023-07-13T10:25:26;96111.47;;;23.46
13219;BMP180;6674;49.152;11.918;2023-07-13T10:27:58;96112.06;;;23.57
13219;BMP180;6674;49.152;11.918;2023-07-13T10:30:28;96116.34;;;23.53
13219;BMP180;6674;49.152;11.918;2023-07-13T10:32:58;96124.53;;;23.38
13219;BMP180;6674;49.152;11.918;2023-07-13T10:35:29;96128.22;;;23.37
13219;BMP180;6674;49.152;11.918;2023-07-13T10:37:59;96125.88;;;23.22
13219;BMP180;6674;49.152;11.918;2023-07-13T10:40:34;96124.94;;;23.45
13219;BMP180;6674;49.152;11.918;2023-07-13T10:43:07;96126.00;;;23.44
13219;BMP180;6674;49.152;11.918;2023-07-13T10:45:37;96122.44;;;23.67
13219;BMP180;6674;49.152;11.918;2023-07-13T10:48:05;96134.34;;;23.78
13219;BMP180;6674;49.152;11.918;2023-07-13T10:50:35;96119.41;;;23.86
13219;BMP180;6674;49.152;11.918;2023-07-13T10:53:19;96123.28;;;24.02
13219;BMP180;6674;49.152;11.918;2023-07-13T10:55:57;96122.09;;;24.35
13219;BMP180;6674;49.152;11.918;2023-07-13T10:58:29;96105.59;;;24.65
13219;BMP180;6674;49.152;11.918;2023-07-13T11:01:03;96114.91;;;24.84
13219;BMP180;6674;49.152;11.918;2023-07-13T11:03:34;96110.38;;;24.63
13219;BMP180;6674;49.152;11.918;2023-07-13T11:06:09;96110.19;;;24.59
13219;BMP180;6674;49.152;11.918;2023-07-13T11:08:50;96102.03;;;24.47
13219;BMP180;6674;49.152;11.918;2023-07-13T11:11:38;96109.84;;;23.90
13219;BMP180;6674;49.152;11.918;2023-07-13T11:14:13;96117.56;;;24.49
13219;BMP180;6674;49.152;11.918;2023-07-13T11:16:51;96111.31;;;24.45
13219;BMP180;6674;49.152;11.918;2023-07-13T11:19:40;96105.19;;;24.71
13219;BMP180;6674;49.152;11.918;2023-07-13T11:22:17;96099.75;;;24.54
13219;BMP180;6674;49.152;11.918;2023-07-13T11:27:41;96094.06;;;24.61
13219;BMP180;6674;49.152;11.918;2023-07-13T11:30:23;96115.03;;;24.44
13219;BMP180;6674;49.152;11.918;2023-07-13T11:32:51;96097.34;;;24.09
13219;BMP180;6674;49.152;11.918;2023-07-13T11:35:23;96106.19;;;24.62
13219;BMP180;6674;49.152;11.918;2023-07-13T11:37:54;96110.16;;;24.94
13219;BMP180;6674;49.152;11.918;2023-07-13T11:40:23;96101.03;;;25.22
13219;BMP180;6674;49.152;11.918;2023-07-13T11:42:52;96109.66;;;25.36
13219;BMP180;6674;49.152;11.918;2023-07-13T11:45:19;96105.84;;;25.20
13219;BMP180;6674;49.152;11.918;2023-07-13T11:47:48;96115.09;;;25.09
13219;BMP180;6674;49.152;11.918;2023-07-13T11:50:20;96105.25;;;24.79
13219;BMP180;6674;49.152;11.918;2023-07-13T11:52:48;96119.38;;;24.83
13219;BMP180;6674;49.152;11.918;2023-07-13T11:55:20;96109.50;;;25.11
13219;BMP180;6674;49.152;11.918;2023-07-13T11:57:51;96108.34;;;25.03
13219;BMP180;6674;49.152;11.918;2023-07-13T12:00:21;96099.78;;;24.98
13219;BMP180;6674;49.152;11.918;2023-07-13T12:02:50;96112.78;;;25.16
13219;BMP180;6674;49.152;11.918;2023-07-13T12:05:19;96105.75;;;25.33
13219;BMP180;6674;49.152;11.918;2023-07-13T12:07:47;96089.78;;;25.47
13219;BMP180;6674;49.152;11.918;2023-07-13T12:10:19;96098.66;;;25.42
13219;BMP180;6674;49.152;11.918;2023-07-13T12:12:48;96101.91;;;25.17
13219;BMP180;6674;49.152;11.918;2023-07-13T12:15:15;96107.16;;;25.09
13219;BMP180;6674;49.152;11.918;2023-07-13T12:17:41;96107.81;;;25.45
13219;BMP180;6674;49.152;11.918;2023-07-13T12:20:20;96105.59;;;25.38
13219;BMP180;6674;49.152;11.918;2023-07-13T12:22:48;96105.03;;;25.19
13219;BMP180;6674;49.152;11.918;2023-07-13T12:25:16;96098.19;;;25.87
13219;BMP180;6674;49.152;11.918;2023-07-13T12:27:48;96100.94;;;25.35
13219;BMP180;6674;49.152;11.918;2023-07-13T12:30:24;96094.28;;;25.38
13219;BMP180;6674;49.152;11.918;2023-07-13T12:33:00;96095.38;;;25.75
13219;BMP180;6674;49.152;11.918;2023-07-13T12:35:29;96089.34;;;25.83
13219;BMP180;6674;49.152;11.918;2023-07-13T12:37:59;96086.13;;;26.03
13219;BMP180;6674;49.152;11.918;2023-07-13T12:40:30;96082.09;;;26.05
13219;BMP180;6674;49.152;11.918;2023-07-13T12:43:00;96095.41;;;25.92
13219;BMP180;6674;49.152;11.918;2023-07-13T12:45:30;96089.22;;;26.05
13219;BMP180;6674;49.152;11.918;2023-07-13T12:47:59;96090.59;;;25.47
13219;BMP180;6674;49.152;11.918;2023-07-13T12:50:34;96082.84;;;25.98
13219;BMP180;6674;49.152;11.918;2023-07-13T12:53:05;96078.03;;;26.08
13219;BMP180;6674;49.152;11.918;2023-07-13T12:55:41;96083.19;;;26.13
13219;BMP180;6674;49.152;11.918;2023-07-13T12:58:17;96078.34;;;26.23
13219;BMP180;6674;49.152;11.918;2023-07-13T13:00:48;96077.41;;;25.94
13219;BMP180;6674;49.152;11.918;2023-07-13T13:03:22;96080.50;;;25.96
13219;BMP180;6674;49.152;11.918;2023-07-13T13:05:57;96073.22;;;26.10
13219;BMP180;6674;49.152;11.918;2023-07-13T13:08:25;96068.47;;;25.65
13219;BMP180;6674;49.152;11.918;2023-07-13T13:10:51;96061.94;;;25.79
13219;BMP180;6674;49.152;11.918;2023-07-13T13:13:20;96063.25;;;26.07
13219;BMP180;6674;49.152;11.918;2023-07-13T13:15:47;96062.97;;;26.17
13219;BMP180;6674;49.152;11.918;2023-07-13T13:18:17;96050.75;;;25.74
13219;BMP180;6674;49.152;11.918;2023-07-13T13:20:45;96056.81;;;25.74
13219;BMP180;6674;49.152;11.918;2023-07-13T13:23:13;96051.63;;;25.61
13219;BMP180;6674;49.152;11.918;2023-07-13T13:25:43;96054.31;;;25.69
13219;BMP180;6674;49.152;11.918;2023-07-13T13:28:15;96057.25;;;25.68
13219;BMP180;6674;49.152;11.918;2023-07-13T13:30:45;96053.09;;;25.67
13219;BMP180;6674;49.152;11.918;2023-07-13T13:33:15;96051.44;;;25.88
13219;BMP180;6674;49.152;11.918;2023-07-13T13:35:43;96055.59;;;25.80
13219;BMP180;6674;49.152;11.918;2023-07-13T13:38:11;96047.06;;;25.83
13219;BMP180;6674;49.152;11.918;2023-07-13T13:40:40;96046.06;;;25.62
13219;BMP180;6674;49.152;11.918;2023-07-13T13:43:15;96051.03;;;25.64
13219;BMP180;6674;49.152;11.918;2023-07-13T13:45:42;96054.84;;;25.88
13219;BMP180;6674;49.152;11.918;2023-07-13T13:48:16;96056.72;;;25.88
13219;BMP180;6674;49.152;11.918;2023-07-13T13:50:43;96056.38;;;25.81
13219;BMP180;6674;49.152;11.918;2023-07-13T13:53:12;96061.47;;;25.39
13219;BMP180;6674;49.152;11.918;2023-07-13T13:55:40;96056.13;;;25.60
13219;BMP180;6674;49.152;11.918;2023-07-13T13:58:08;96056.41;;;25.51
13219;BMP180;6674;49.152;11.918;2023-07-13T14:00:36;96057.91;;;25.35
13219;BMP180;6674;49.152;11.918;2023-07-13T14:03:03;96051.88;;;25.81
13219;BMP180;6674;49.152;11.918;2023-07-13T14:05:33;96062.59;;;25.76
13219;BMP180;6674;49.152;11.918;2023-07-13T14:08:00;96053.13;;;25.45
13219;BMP180;6674;49.152;11.918;2023-07-13T14:10:27;96051.53;;;25.74
13219;BMP180;6674;49.152;11.918;2023-07-13T14:12:56;96062.59;;;25.76
13219;BMP180;6674;49.152;11.918;2023-07-13T14:15:25;96057.78;;;25.78
13219;BMP180;6674;49.152;11.918;2023-07-13T14:17:53;96058.69;;;25.82
13219;BMP180;6674;49.152;11.918;2023-07-13T14:20:21;96055.91;;;25.87
13219;BMP180;6674;49.152;11.918;2023-07-13T14:22:51;96064.34;;;26.06
13219;BMP180;6674;49.152;11.918;2023-07-13T14:25:19;96052.38;;;26.00
13219;BMP180;6674;49.152;11.918;2023-07-13T14:27:49;96050.75;;;25.74